createdAt,value
2023-04-20T00:02:54.522Z,6.60
2023-04-20T00:07:48.590Z,6.60
2023-04-20T00:12:43.428Z,6.50
2023-04-20T00:17:38.514Z,6.50
2023-04-20T00:22:32.002Z,6.50
2023-04-20T00:27:25.352Z,6.50
2023-04-20T00:32:20.008Z,6.50
2023-04-20T00:37:13.423Z,6.60
2023-04-20T00:42:10.053Z,6.50
2023-04-20T00:47:03.418Z,6.40
2023-04-20T00:51:58.913Z,6.40
2023-04-20T00:56:53.456Z,6.40
2023-04-20T01:01:46.823Z,6.40
2023-04-20T01:06:40.122Z,6.50
2023-04-20T01:11:34.820Z,6.30
2023-04-20T01:16:28.209Z,6.20
2023-04-20T01:21:22.960Z,6.20
2023-04-20T01:26:20.412Z,6.20
2023-04-20T01:31:14.850Z,6.30
2023-04-20T01:36:10.129Z,6.40
2023-04-20T01:41:04.519Z,6.50
2023-04-20T01:46:00.246Z,6.50
2023-04-20T01:50:54.069Z,6.50
2023-04-20T01:55:47.418Z,6.60
2023-04-20T02:00:40.929Z,6.60
2023-04-20T02:05:35.655Z,6.60
2023-04-20T02:10:29.012Z,6.60
2023-04-20T02:15:22.484Z,6.60
2023-04-20T02:20:15.773Z,6.60
2023-04-20T02:25:11.594Z,6.50
2023-04-20T02:30:06.140Z,6.40
2023-04-20T02:34:59.508Z,6.50
2023-04-20T02:39:52.792Z,6.40
2023-04-20T02:44:47.484Z,6.30
2023-04-20T02:49:41.006Z,6.20
2023-04-20T02:54:34.504Z,6.30
2023-04-20T02:59:27.893Z,6.30
2023-04-20T03:04:22.794Z,6.30
2023-04-20T03:09:16.535Z,6.20
2023-04-20T03:14:10.206Z,6.10
2023-04-20T03:19:04.678Z,6.10
2023-04-20T03:23:59.367Z,6.10
2023-04-20T03:28:52.852Z,5.80
2023-04-20T03:33:46.319Z,5.90
2023-04-20T03:38:39.701Z,5.90
2023-04-20T03:43:34.371Z,5.90
2023-04-20T03:48:28.015Z,5.90
2023-04-20T03:53:21.392Z,5.90
2023-04-20T03:58:14.678Z,6.00
2023-04-20T04:03:09.995Z,6.00
2023-04-20T04:08:03.459Z,6.10
2023-04-20T04:12:56.784Z,6.00
2023-04-20T04:17:50.291Z,6.10
2023-04-20T04:22:45.100Z,6.00
2023-04-20T04:27:39.896Z,5.90
2023-04-20T04:32:34.609Z,5.90
2023-04-20T04:37:28.182Z,5.90
2023-04-20T04:42:22.972Z,5.90
2023-04-20T04:47:17.961Z,5.90
2023-04-20T04:52:11.310Z,5.80
2023-04-20T04:57:05.091Z,5.90
2023-04-20T05:02:00.125Z,5.80
2023-04-20T05:06:53.525Z,5.80
2023-04-20T05:11:46.891Z,5.80
2023-04-20T05:16:40.255Z,5.70
2023-04-20T05:21:35.074Z,5.70
2023-04-20T05:26:28.357Z,5.80
2023-04-20T05:31:21.755Z,5.80
2023-04-20T05:36:15.249Z,5.90
2023-04-20T05:41:10.060Z,6.00
2023-04-20T05:46:03.397Z,6.00
2023-04-20T05:50:56.956Z,5.90
2023-04-20T05:55:50.378Z,6.00
2023-04-20T06:00:48.027Z,5.90
2023-04-20T06:05:41.625Z,5.90
2023-04-20T06:10:35.214Z,5.80
2023-04-20T06:15:28.735Z,5.70
2023-04-20T06:20:23.957Z,5.90
2023-04-20T06:25:17.352Z,5.90
2023-04-20T06:30:12.164Z,5.70
2023-04-20T06:35:05.955Z,5.70
2023-04-20T06:40:00.672Z,5.70
2023-04-20T06:44:54.016Z,5.80
2023-04-20T06:49:47.374Z,5.80
2023-04-20T06:54:40.663Z,5.70
2023-04-20T06:59:35.754Z,5.70
2023-04-20T07:04:30.713Z,6.00
2023-04-20T07:09:24.846Z,6.10
2023-04-20T07:14:18.176Z,6.10
2023-04-20T07:19:12.870Z,6.00
2023-04-20T07:24:06.845Z,6.10
2023-04-20T07:29:00.512Z,6.10
2023-04-20T07:33:53.834Z,5.90
2023-04-20T07:38:48.547Z,5.90
2023-04-20T07:43:41.973Z,6.00
2023-04-20T07:48:36.291Z,6.20
2023-04-20T07:53:30.437Z,6.20
2023-04-20T07:58:25.135Z,6.20
2023-04-20T08:03:18.657Z,6.20
2023-04-20T08:08:12.264Z,6.00
2023-04-20T08:13:05.758Z,5.90
2023-04-20T08:18:00.572Z,5.80
2023-04-20T08:22:54.045Z,5.80
2023-04-20T08:27:47.353Z,5.90
2023-04-20T08:32:41.158Z,6.00
2023-04-20T08:37:37.544Z,6.00
2023-04-20T08:42:31.778Z,6.10
2023-04-20T08:47:25.974Z,6.20
2023-04-20T08:52:19.331Z,6.10
2023-04-20T08:57:14.032Z,6.30
2023-04-20T09:02:12.472Z,6.10
2023-04-20T09:07:06.696Z,6.10
2023-04-20T09:12:04.615Z,6.20
2023-04-20T09:17:02.175Z,6.20
2023-04-20T09:21:58.387Z,6.40
2023-04-20T09:26:51.860Z,6.50
2023-04-20T09:31:45.310Z,6.60
2023-04-20T09:36:42.498Z,6.60
2023-04-20T09:41:37.930Z,6.50
2023-04-20T09:46:33.156Z,6.50
2023-04-20T09:51:29.022Z,6.70
2023-04-20T09:56:24.019Z,6.70
2023-04-20T10:01:17.594Z,6.70
2023-04-20T10:06:24.093Z,6.60
2023-04-20T10:11:44.651Z,6.40
2023-04-20T10:16:46.679Z,6.60
2023-04-20T10:21:49.449Z,6.40
2023-04-20T10:26:47.287Z,6.40
2023-04-20T10:31:41.930Z,6.50
2023-04-20T10:36:37.853Z,6.50
2023-04-20T10:41:31.189Z,6.70
2023-04-20T10:46:26.645Z,6.80
2023-04-20T10:51:20.784Z,6.80
2023-04-20T10:56:14.176Z,6.90
2023-04-20T11:01:07.859Z,7.10
2023-04-20T11:06:04.120Z,7.30
2023-04-20T11:10:57.877Z,7.30
2023-04-20T11:15:51.615Z,7.30
2023-04-20T11:20:53.222Z,7.20
2023-04-20T11:25:53.786Z,7.20
2023-04-20T11:30:47.534Z,7.30
2023-04-20T11:35:44.711Z,7.30
2023-04-20T11:40:38.136Z,7.30
2023-04-20T11:45:36.228Z,7.50
2023-04-20T11:50:38.576Z,7.30
2023-04-20T11:55:34.567Z,7.10
2023-04-20T12:00:31.677Z,7.00
2023-04-20T12:05:26.551Z,7.20
2023-04-20T12:10:19.888Z,7.10
2023-04-20T12:15:13.783Z,7.10
2023-04-20T12:20:12.181Z,7.10
2023-04-20T12:25:08.893Z,6.90
2023-04-20T12:30:02.201Z,6.90
2023-04-20T12:34:56.043Z,7.00
2023-04-20T12:39:49.325Z,7.10
2023-04-20T12:44:43.997Z,7.20
2023-04-20T12:49:37.353Z,7.30
2023-04-20T12:54:30.787Z,7.20
2023-04-20T12:59:24.167Z,7.20
2023-04-20T13:04:19.378Z,7.20
2023-04-20T13:09:13.032Z,7.10
2023-04-20T13:14:06.325Z,7.20
2023-04-20T13:18:59.668Z,7.30
2023-04-20T13:23:55.545Z,7.60
2023-04-20T13:28:50.268Z,7.70
2023-04-20T13:33:43.568Z,7.50
2023-04-20T13:38:36.947Z,7.40
2023-04-20T13:43:31.722Z,7.40
2023-04-20T13:48:25.111Z,7.40
2023-04-20T13:53:18.463Z,7.30
2023-04-20T13:58:11.827Z,7.20
2023-04-20T14:03:07.117Z,7.20
2023-04-20T14:08:01.724Z,7.10
2023-04-20T14:12:55.469Z,7.10
2023-04-20T14:17:51.692Z,7.20
2023-04-20T14:22:47.091Z,7.00
2023-04-20T14:27:40.446Z,7.00
2023-04-20T14:32:35.827Z,7.00
2023-04-20T14:37:29.151Z,6.90
2023-04-20T14:42:24.012Z,7.00
2023-04-20T14:47:17.431Z,7.00
2023-04-20T14:52:10.789Z,7.00
2023-04-20T14:57:04.116Z,7.00
2023-04-20T15:02:02.773Z,7.20
2023-04-20T15:06:56.773Z,7.10
2023-04-20T15:11:50.317Z,7.10
2023-04-20T15:16:44.212Z,7.10
2023-04-20T15:21:38.963Z,7.00
2023-04-20T15:27:02.769Z,7.00
2023-04-20T15:31:58.597Z,7.10
2023-04-20T15:36:53.336Z,7.00
2023-04-20T15:41:52.990Z,6.90
2023-04-20T15:46:48.364Z,6.90
2023-04-20T15:51:42.641Z,6.90
2023-04-20T15:56:41.499Z,7.00
2023-04-20T16:01:36.083Z,7.10
2023-04-20T16:06:29.421Z,7.20
2023-04-20T16:11:26.448Z,7.20
2023-04-20T16:16:23.845Z,7.20
2023-04-20T16:21:19.796Z,7.20
2023-04-20T16:26:16.237Z,7.20
2023-04-20T16:31:11.944Z,7.20
2023-04-20T16:36:08.413Z,7.20
2023-04-20T16:41:06.007Z,7.00
2023-04-20T16:46:05.372Z,7.00
2023-04-20T16:51:01.273Z,7.00
2023-04-20T16:55:59.488Z,6.90
2023-04-20T17:00:52.953Z,6.70
2023-04-20T17:05:47.064Z,6.80
2023-04-20T17:10:40.860Z,6.80
2023-04-20T17:15:35.604Z,6.70
2023-04-20T17:20:28.939Z,6.70
2023-04-20T17:25:22.277Z,6.70
2023-04-20T17:30:16.067Z,6.70
2023-04-20T17:35:11.305Z,6.80
2023-04-20T17:40:06.368Z,6.80
2023-04-20T17:44:59.724Z,6.80
2023-04-20T17:49:53.112Z,6.80
2023-04-20T17:54:47.792Z,6.80
2023-04-20T17:59:42.318Z,6.80
2023-04-20T18:04:35.922Z,6.80
2023-04-20T18:09:29.320Z,6.80
2023-04-20T18:14:24.549Z,6.90
2023-04-20T18:19:18.084Z,6.90
2023-04-20T18:24:11.332Z,6.80
2023-04-20T18:29:05.364Z,6.60
2023-04-20T18:34:00.118Z,6.50
2023-04-20T18:38:54.118Z,6.50
2023-04-20T18:43:49.636Z,6.50
2023-04-20T18:48:42.971Z,6.50
2023-04-20T18:53:37.676Z,6.60
2023-04-20T18:58:31.128Z,6.60
2023-04-20T19:03:25.523Z,6.50
2023-04-20T19:08:19.134Z,6.50
2023-04-20T19:13:17.501Z,6.40
2023-04-20T19:18:11.506Z,6.00
2023-04-20T19:23:04.977Z,6.10
2023-04-20T19:27:58.833Z,6.10
2023-04-20T19:32:53.514Z,6.20
2023-04-20T19:37:47.875Z,6.20
2023-04-20T19:42:42.435Z,6.10
2023-04-20T19:47:36.690Z,6.00
2023-04-20T19:52:32.532Z,6.00
2023-04-20T19:57:25.886Z,6.10
2023-04-20T20:02:22.434Z,6.20
2023-04-20T20:07:16.753Z,6.30
2023-04-20T20:12:12.465Z,6.20
2023-04-20T20:17:06.710Z,6.20
2023-04-20T20:22:00.061Z,6.20
2023-04-20T20:26:53.543Z,6.10
2023-04-20T20:31:48.401Z,6.20
2023-04-20T20:36:44.806Z,6.10
2023-04-20T20:41:42.770Z,6.00
2023-04-20T20:46:36.300Z,6.00
2023-04-20T20:51:31.501Z,6.10
2023-04-20T20:56:24.963Z,6.20
2023-04-20T21:01:18.412Z,6.20
2023-04-20T21:06:11.812Z,6.20
2023-04-20T21:11:06.631Z,6.20
2023-04-20T21:16:00.009Z,6.10
2023-04-20T21:20:53.415Z,6.10
2023-04-20T21:25:46.705Z,6.00
2023-04-20T21:30:41.379Z,6.00
2023-04-20T21:35:34.706Z,5.90
2023-04-20T21:40:28.077Z,5.80
2023-04-20T21:45:21.446Z,5.90
2023-04-20T21:50:16.370Z,5.90
2023-04-20T21:55:10.732Z,6.00
2023-04-20T22:00:04.306Z,6.00
2023-04-20T22:04:58.008Z,6.00
2023-04-20T22:09:52.674Z,6.00
2023-04-20T22:14:46.238Z,6.00
2023-04-20T22:19:39.575Z,6.00
2023-04-20T22:24:33.412Z,6.00
2023-04-20T22:29:30.034Z,6.10
2023-04-20T22:34:23.358Z,6.00
2023-04-20T22:39:16.832Z,5.90
2023-04-20T22:44:10.518Z,5.90
2023-04-20T22:49:05.500Z,5.80
2023-04-20T22:54:01.006Z,5.80
2023-04-20T22:58:54.356Z,5.80
2023-04-20T23:03:47.787Z,5.80
2023-04-20T23:08:42.724Z,5.70
2023-04-20T23:13:37.251Z,5.80
2023-04-20T23:18:31.210Z,5.70
2023-04-20T23:23:24.570Z,5.60
2023-04-20T23:28:19.438Z,5.70
2023-04-20T23:33:12.898Z,5.60
2023-04-20T23:38:06.415Z,5.50
2023-04-20T23:42:59.808Z,5.30
2023-04-20T23:47:54.549Z,5.20
2023-04-20T23:52:48.048Z,5.10
2023-04-20T23:57:41.407Z,5.20
